createdAt,value
2022-08-08T00:10:58.442Z,1069.53943
2022-08-08T00:26:01.255Z,1067.11966
2022-08-08T00:41:13.013Z,1058.34007
2022-08-08T00:56:17.211Z,1034.35723
2022-08-08T01:11:19.385Z,1015.06506
2022-08-08T01:26:24.191Z,967.1912
2022-08-08T01:41:26.697Z,870.2342
2022-08-08T01:56:37.226Z,795.39117
2022-08-08T02:12:00.174Z,730.15878
2022-08-08T02:27:03.014Z,757.08985
2022-08-08T02:42:10.705Z,774.07052
2022-08-08T02:57:16.987Z,722.69295
2022-08-08T03:12:36.508Z,654.43866
2022-08-08T03:28:03.652Z,646.06376
2022-08-08T03:43:16.462Z,592.94782
2022-08-08T03:58:36.418Z,542.85242
2022-08-08T04:14:04.318Z,531.42396
2022-08-08T04:29:37.710Z,534.63984
2022-08-08T04:44:39.937Z,568.61933
2022-08-08T04:59:42.686Z,540.36228
2022-08-08T05:14:45.003Z,573.231
2022-08-08T05:29:52.132Z,544.10612
2022-08-08T05:44:54.682Z,561.39304
2022-08-08T06:00:24.840Z,588.99484
2022-08-08T06:15:31.679Z,576.97455
2022-08-08T06:30:53.740Z,539.5373
2022-08-08T06:45:57.286Z,492.88279
2022-08-08T07:00:59.753Z,491.1702
2022-08-08T07:16:04.549Z,484.7695
2022-08-08T07:31:10.120Z,465.30215
2022-08-08T07:46:23.568Z,416.00592
2022-08-08T08:02:33.698Z,439.54851
2022-08-08T08:17:49.026Z,445.92681
2022-08-08T08:32:51.925Z,397.96965
2022-08-08T08:47:54.882Z,384.54522
2022-08-08T09:03:00.723Z,427.06588
2022-08-08T09:18:03.145Z,427.84142
2022-08-08T09:33:54.527Z,436.56208
2022-08-08T09:49:42.067Z,409.97335
2022-08-08T10:04:47.769Z,430.44703
2022-08-08T10:19:57.616Z,448.18896
2022-08-08T10:35:01.345Z,453.94604
2022-08-08T10:50:04.633Z,442.57608
2022-08-08T11:05:14.751Z,469.94279
2022-08-08T11:20:18.130Z,467.45632
2022-08-08T11:35:37.771Z,465.30215
2022-08-08T11:50:44.746Z,470.56855
2022-08-08T12:05:54.849Z,477.56348
2022-08-08T12:20:58.804Z,463.16774
2022-08-08T12:36:02.471Z,457.47183
2022-08-08T12:51:10.897Z,463.16774
2022-08-08T13:06:14.406Z,466.22293
2022-08-08T13:21:16.889Z,450.76147
2022-08-08T13:36:25.722Z,453.07307
2022-08-08T13:51:37.763Z,444.24513
2022-08-08T14:06:43.991Z,434.14866
2022-08-08T14:21:49.069Z,461.95684
2022-08-08T14:36:54.898Z,449.6145
2022-08-08T14:51:57.163Z,499.14824
2022-08-08T15:06:59.599Z,547.90221
2022-08-08T15:22:06.872Z,576.97455
2022-08-08T15:37:09.208Z,581.24491
2022-08-08T15:52:11.690Z,646.65485
2022-08-08T16:07:13.908Z,713.93304
2022-08-08T16:22:30.327Z,697.03522
2022-08-08T16:37:33.443Z,721.95475
2022-08-08T16:55:01.539Z,689.55485
2022-08-08T17:10:27.612Z,697.03522
2022-08-08T17:25:47.631Z,723.43265
2022-08-08T17:40:55.461Z,762.80373
2022-08-08T17:56:06.727Z,843.26629
2022-08-08T18:11:11.593Z,877.79206
2022-08-08T18:26:17.257Z,889.37825
2022-08-08T18:41:19.764Z,929.08783
2022-08-08T18:56:54.682Z,973.84771
2022-08-08T19:11:56.954Z,954.79132
2022-08-08T19:26:59.392Z,947.75669
2022-08-08T19:42:02.474Z,1025.36282
2022-08-08T19:57:07.758Z,1071.9702
2022-08-08T20:12:10.309Z,1143.89703
2022-08-08T20:27:20.650Z,1199.15305
2022-08-08T20:42:28.152Z,1206.30912
2022-08-08T20:57:32.199Z,1204.25582
2022-08-08T21:12:35.658Z,1272.48252
2022-08-08T21:28:06.217Z,1234.73
2022-08-08T21:43:16.852Z,1291.0589
2022-08-08T21:58:19.173Z,1399.60486
2022-08-08T22:13:27.165Z,1296.97576
2022-08-08T22:29:15.001Z,1334.90617
2022-08-08T22:45:03.575Z,1301.74844
2022-08-08T23:00:07.627Z,1429.29344
2022-08-08T23:15:11.172Z,1454.26567
2022-08-08T23:31:45.019Z,1426.4118
2022-08-08T23:49:07.547Z,1400.99061
